createdAt,value
2023-05-22T00:00:25.883Z,356
2023-05-22T00:01:26.989Z,360
2023-05-22T00:02:24.740Z,362
2023-05-22T00:03:24.754Z,367
2023-05-22T00:04:24.842Z,365
2023-05-22T00:05:24.632Z,372
2023-05-22T00:07:24.742Z,367
2023-05-22T00:08:25.810Z,356
2023-05-22T00:09:24.233Z,358
2023-05-22T00:10:24.378Z,357
2023-05-22T00:11:24.304Z,366
2023-05-22T00:12:25.092Z,365
2023-05-22T00:13:24.539Z,355
2023-05-22T00:14:24.379Z,356
2023-05-22T00:15:24.558Z,354
2023-05-22T00:16:24.499Z,358
2023-05-22T00:17:24.620Z,362
2023-05-22T00:19:24.200Z,360
2023-05-22T00:20:24.825Z,358
2023-05-22T00:21:24.577Z,363
2023-05-22T00:22:24.602Z,355
2023-05-22T00:23:24.244Z,357
2023-05-22T00:24:29.760Z,370
2023-05-22T00:25:24.370Z,365
2023-05-22T00:26:24.357Z,360
2023-05-22T00:27:24.022Z,361
2023-05-22T00:28:24.530Z,358
2023-05-22T00:29:24.128Z,359
2023-05-22T00:30:32.951Z,366
2023-05-22T00:31:24.781Z,377
2023-05-22T00:32:24.670Z,370
2023-05-22T00:33:24.493Z,355
2023-05-22T00:35:24.729Z,354
2023-05-22T00:36:24.563Z,353
2023-05-22T00:37:24.406Z,360
2023-05-22T00:38:24.698Z,361
2023-05-22T00:39:25.204Z,371
2023-05-22T00:40:25.092Z,367
2023-05-22T00:41:24.378Z,366
2023-05-22T00:42:24.413Z,376
2023-05-22T00:43:24.564Z,373
2023-05-22T00:44:24.732Z,363
2023-05-22T00:45:24.921Z,373
2023-05-22T00:46:24.966Z,376
2023-05-22T00:47:25.303Z,374
2023-05-22T00:48:24.376Z,372
2023-05-22T00:49:24.691Z,363
2023-05-22T00:50:24.952Z,364
2023-05-22T00:51:24.706Z,366
2023-05-22T00:52:43.920Z,363
2023-05-22T00:53:25.027Z,368
2023-05-22T00:54:24.775Z,373
2023-05-22T00:55:24.795Z,366
2023-05-22T00:56:24.459Z,372
2023-05-22T00:57:24.710Z,371
2023-05-22T00:58:24.505Z,370
2023-05-22T00:59:24.472Z,374
2023-05-22T01:00:25.761Z,369
2023-05-22T01:01:24.899Z,366
2023-05-22T01:02:24.525Z,363
2023-05-22T01:03:24.853Z,358
2023-05-22T01:05:24.904Z,370
2023-05-22T01:06:25.136Z,366
2023-05-22T01:08:24.792Z,369
2023-05-22T01:09:24.666Z,371
2023-05-22T01:10:24.756Z,363
2023-05-22T01:11:24.376Z,369
2023-05-22T01:12:24.415Z,361
2023-05-22T01:13:24.352Z,356
2023-05-22T01:14:24.537Z,367
2023-05-22T01:15:24.400Z,368
2023-05-22T01:16:24.450Z,355
2023-05-22T01:17:24.521Z,357
2023-05-22T01:18:24.514Z,352
2023-05-22T01:19:24.391Z,363
2023-05-22T01:20:24.584Z,362
2023-05-22T01:21:24.861Z,366
2023-05-22T01:22:24.969Z,372
2023-05-22T01:23:24.846Z,371
2023-05-22T01:24:24.804Z,366
2023-05-22T01:25:25.357Z,375
2023-05-22T01:26:24.522Z,378
2023-05-22T01:27:24.762Z,372
2023-05-22T01:28:25.186Z,368
2023-05-22T01:29:25.187Z,362
2023-05-22T01:30:24.939Z,352
2023-05-22T01:31:24.481Z,362
2023-05-22T01:32:24.774Z,363
2023-05-22T01:33:24.477Z,354
2023-05-22T01:34:25.059Z,348
2023-05-22T01:35:25.064Z,360
2023-05-22T01:36:24.702Z,357
2023-05-22T01:37:24.281Z,355
2023-05-22T01:38:24.998Z,363
2023-05-22T01:40:24.926Z,356
2023-05-22T01:41:24.953Z,361
2023-05-22T01:42:24.675Z,359
2023-05-22T01:43:24.233Z,357
2023-05-22T01:44:24.745Z,356
2023-05-22T01:45:24.617Z,359
2023-05-22T01:46:24.796Z,363
2023-05-22T01:47:24.517Z,361
2023-05-22T01:48:24.605Z,371
2023-05-22T01:49:24.532Z,373
2023-05-22T01:50:24.782Z,368
2023-05-22T01:52:25.006Z,361
2023-05-22T01:53:24.641Z,358
2023-05-22T01:55:24.665Z,364
2023-05-22T01:56:24.423Z,361
2023-05-22T01:57:24.375Z,367
2023-05-22T01:58:24.424Z,363
2023-05-22T01:59:24.729Z,364
2023-05-22T02:00:26.534Z,363
2023-05-22T02:01:24.241Z,367
2023-05-22T02:02:24.386Z,368
2023-05-22T02:03:24.488Z,364
2023-05-22T02:04:24.624Z,369
2023-05-22T02:05:24.997Z,368
2023-05-22T02:06:24.896Z,373
2023-05-22T02:07:24.832Z,379
2023-05-22T02:08:24.730Z,374
2023-05-22T02:09:24.482Z,367
2023-05-22T02:10:24.742Z,365
2023-05-22T02:11:24.199Z,379
2023-05-22T02:12:25.146Z,371
2023-05-22T02:13:25.129Z,363
2023-05-22T02:14:24.801Z,370
2023-05-22T02:15:25.195Z,367
2023-05-22T02:16:24.996Z,365
2023-05-22T02:17:24.601Z,368
2023-05-22T02:18:24.705Z,372
2023-05-22T02:19:24.516Z,369
2023-05-22T02:20:25.191Z,376
2023-05-22T02:21:24.597Z,369
2023-05-22T02:22:24.869Z,363
2023-05-22T02:23:24.730Z,369
2023-05-22T02:24:24.712Z,375
2023-05-22T02:25:24.648Z,374
2023-05-22T02:26:24.426Z,365
2023-05-22T02:29:24.734Z,370
2023-05-22T02:30:25.251Z,362
2023-05-22T02:31:24.541Z,360
2023-05-22T02:33:25.067Z,358
2023-05-22T02:34:24.601Z,360
2023-05-22T02:35:24.662Z,348
2023-05-22T02:36:24.663Z,358
2023-05-22T02:37:24.641Z,362
2023-05-22T02:38:24.380Z,381
2023-05-22T02:39:24.261Z,380
2023-05-22T02:40:25.125Z,371
2023-05-22T02:41:24.511Z,362
2023-05-22T02:42:24.341Z,363
2023-05-22T02:43:24.906Z,367
2023-05-22T02:44:24.613Z,374
2023-05-22T02:45:25.124Z,373
2023-05-22T02:46:24.981Z,368
2023-05-22T02:47:24.769Z,371
2023-05-22T02:48:24.951Z,370
2023-05-22T02:49:24.871Z,361
2023-05-22T02:50:25.306Z,369
2023-05-22T02:51:30.032Z,376
2023-05-22T02:52:25.035Z,372
2023-05-22T02:53:24.350Z,369
2023-05-22T02:54:24.358Z,373
2023-05-22T02:55:24.616Z,368
2023-05-22T02:56:24.665Z,357
2023-05-22T02:57:24.513Z,362
2023-05-22T02:58:24.410Z,371
2023-05-22T02:59:24.542Z,368
2023-05-22T03:00:25.859Z,367
2023-05-22T03:01:38.534Z,370
2023-05-22T03:02:25.001Z,366
2023-05-22T03:03:25.278Z,365
2023-05-22T03:04:24.529Z,366
2023-05-22T03:05:24.966Z,365
2023-05-22T03:06:25.046Z,372
2023-05-22T03:07:25.201Z,364
2023-05-22T03:08:24.519Z,363
2023-05-22T03:09:24.570Z,370
2023-05-22T03:10:24.913Z,375
2023-05-22T03:11:24.950Z,365
2023-05-22T03:12:24.693Z,364
2023-05-22T03:13:24.311Z,369
2023-05-22T03:14:25.075Z,372
2023-05-22T03:15:25.401Z,379
2023-05-22T03:16:24.465Z,381
2023-05-22T03:17:24.516Z,389
2023-05-22T03:18:27.267Z,372
2023-05-22T03:19:24.650Z,376
2023-05-22T03:20:24.861Z,375
2023-05-22T03:21:24.690Z,369
2023-05-22T03:22:24.576Z,385
2023-05-22T03:23:43.392Z,384
2023-05-22T03:24:24.210Z,379
2023-05-22T03:27:24.277Z,391
2023-05-22T03:28:25.004Z,383
2023-05-22T03:29:24.916Z,378
2023-05-22T03:30:24.832Z,374
2023-05-22T03:31:46.345Z,377
2023-05-22T03:32:25.160Z,374
2023-05-22T03:33:47.082Z,370
2023-05-22T03:34:25.193Z,381
2023-05-22T03:35:24.809Z,384
2023-05-22T03:36:24.628Z,387
2023-05-22T03:37:24.387Z,391
2023-05-22T03:38:24.272Z,381
2023-05-22T03:39:24.250Z,367
2023-05-22T03:40:24.583Z,368
2023-05-22T03:41:24.625Z,378
2023-05-22T03:42:24.562Z,373
2023-05-22T03:43:24.704Z,369
2023-05-22T03:44:24.691Z,376
2023-05-22T03:45:25.162Z,393
2023-05-22T03:46:25.350Z,396
2023-05-22T03:47:24.911Z,386
2023-05-22T03:48:24.985Z,380
2023-05-22T03:49:24.681Z,377
2023-05-22T03:50:24.841Z,379
2023-05-22T03:51:24.584Z,383
2023-05-22T03:52:24.525Z,387
2023-05-22T03:53:24.495Z,388
2023-05-22T03:54:24.620Z,382
2023-05-22T03:55:24.886Z,383
2023-05-22T03:56:24.821Z,371
2023-05-22T03:57:24.599Z,372
2023-05-22T03:58:24.686Z,368
2023-05-22T03:59:24.706Z,374
2023-05-22T04:00:27.017Z,377
2023-05-22T04:01:25.127Z,365
2023-05-22T04:02:25.356Z,370
2023-05-22T04:04:24.920Z,368
2023-05-22T04:05:24.799Z,374
2023-05-22T04:06:24.723Z,370
2023-05-22T04:07:24.657Z,367
2023-05-22T04:08:24.752Z,378
2023-05-22T04:09:24.973Z,387
2023-05-22T04:10:25.126Z,373
2023-05-22T04:11:24.711Z,372
2023-05-22T04:12:25.013Z,385
2023-05-22T04:13:24.824Z,380
2023-05-22T04:14:25.031Z,373
2023-05-22T04:15:25.681Z,363
2023-05-22T04:16:25.673Z,373
2023-05-22T04:17:25.099Z,367
2023-05-22T04:18:25.034Z,360
2023-05-22T04:19:25.150Z,372
2023-05-22T04:20:24.723Z,378
2023-05-22T04:21:24.461Z,382
2023-05-22T04:22:24.651Z,377
2023-05-22T04:23:24.925Z,384
2023-05-22T04:24:25.051Z,385
2023-05-22T04:25:25.225Z,377
2023-05-22T04:26:25.103Z,371
2023-05-22T04:27:24.829Z,366
2023-05-22T04:28:24.968Z,379
2023-05-22T04:29:24.909Z,381
2023-05-22T04:30:25.111Z,382
2023-05-22T04:31:25.047Z,378
2023-05-22T04:32:25.253Z,373
2023-05-22T04:33:24.824Z,380
2023-05-22T04:34:24.606Z,370
2023-05-22T04:35:25.091Z,382
2023-05-22T04:36:24.325Z,391
2023-05-22T04:37:24.634Z,394
2023-05-22T04:38:25.188Z,384
2023-05-22T04:39:24.922Z,371
2023-05-22T04:40:25.363Z,379
2023-05-22T04:41:24.720Z,383
2023-05-22T04:42:24.756Z,381
2023-05-22T04:43:24.794Z,378
2023-05-22T04:44:25.116Z,382
2023-05-22T04:45:25.250Z,386
2023-05-22T04:46:25.098Z,381
2023-05-22T04:47:24.769Z,379
2023-05-22T04:48:24.928Z,386
2023-05-22T04:49:25.021Z,385
2023-05-22T04:50:25.266Z,374
2023-05-22T04:51:24.856Z,377
2023-05-22T04:52:25.183Z,379
2023-05-22T04:54:25.025Z,379
2023-05-22T04:55:25.627Z,374
2023-05-22T04:56:35.634Z,373
2023-05-22T04:57:25.167Z,370
2023-05-22T04:58:25.168Z,375
2023-05-22T04:59:25.350Z,379
2023-05-22T05:01:24.896Z,382
2023-05-22T05:02:25.032Z,383
2023-05-22T05:03:24.883Z,374
2023-05-22T05:04:25.143Z,377
2023-05-22T05:05:24.861Z,375
2023-05-22T05:06:24.929Z,376
2023-05-22T05:07:25.153Z,377
2023-05-22T05:08:25.073Z,378
2023-05-22T05:09:24.874Z,389
2023-05-22T05:10:25.157Z,385
2023-05-22T05:11:24.790Z,369
2023-05-22T05:12:24.988Z,377
2023-05-22T05:13:25.059Z,379
2023-05-22T05:14:24.497Z,371
2023-05-22T05:15:25.315Z,369
2023-05-22T05:16:24.583Z,370
2023-05-22T05:17:25.050Z,376
2023-05-22T05:18:24.801Z,373
2023-05-22T05:19:25.154Z,364
2023-05-22T05:20:25.004Z,371
2023-05-22T05:21:24.619Z,370
2023-05-22T05:22:24.984Z,357
2023-05-22T05:23:24.553Z,350
2023-05-22T05:24:24.908Z,356
2023-05-22T05:25:25.204Z,369
2023-05-22T05:26:25.163Z,379
2023-05-22T05:27:24.544Z,382
2023-05-22T05:28:24.669Z,385
2023-05-22T05:29:24.620Z,378
2023-05-22T05:30:25.268Z,381
2023-05-22T05:31:24.947Z,371
2023-05-22T05:32:25.409Z,366
2023-05-22T05:33:24.829Z,365
2023-05-22T05:34:25.157Z,360
2023-05-22T05:35:25.380Z,362
2023-05-22T05:36:24.385Z,361
2023-05-22T05:37:24.625Z,365
2023-05-22T05:38:24.879Z,368
2023-05-22T05:39:25.056Z,364
2023-05-22T05:40:24.616Z,368
2023-05-22T05:41:24.893Z,361
2023-05-22T05:42:25.097Z,362
2023-05-22T05:43:24.336Z,366
2023-05-22T05:44:24.590Z,369
2023-05-22T05:45:25.015Z,362
2023-05-22T05:46:24.769Z,366
2023-05-22T05:47:24.739Z,359
2023-05-22T05:48:25.229Z,365
2023-05-22T05:49:24.542Z,358
2023-05-22T05:51:24.941Z,364
2023-05-22T05:52:24.839Z,362
2023-05-22T05:53:25.204Z,360
2023-05-22T05:54:25.053Z,362
2023-05-22T05:56:24.931Z,363
2023-05-22T05:57:25.086Z,365
2023-05-22T05:59:24.956Z,367
2023-05-22T06:00:25.784Z,357
2023-05-22T06:01:25.111Z,361
2023-05-22T06:02:25.175Z,363
2023-05-22T06:03:24.850Z,362
2023-05-22T06:04:25.453Z,364
2023-05-22T06:05:24.878Z,359
2023-05-22T06:06:24.695Z,371
2023-05-22T06:07:25.049Z,364
2023-05-22T06:08:25.023Z,358
2023-05-22T06:09:25.426Z,366
2023-05-22T06:10:24.892Z,376
2023-05-22T06:11:25.020Z,373
2023-05-22T06:12:25.117Z,370
2023-05-22T06:14:24.560Z,367
2023-05-22T06:15:25.183Z,366
2023-05-22T06:16:25.033Z,367
2023-05-22T06:18:25.016Z,361
2023-05-22T06:19:24.696Z,349
2023-05-22T06:20:25.065Z,353
2023-05-22T06:21:24.536Z,355
2023-05-22T06:22:24.856Z,351
2023-05-22T06:23:25.042Z,353
2023-05-22T06:24:25.237Z,344
2023-05-22T06:25:24.924Z,340
2023-05-22T06:26:24.930Z,345
2023-05-22T06:27:25.262Z,346
2023-05-22T06:28:24.689Z,356
2023-05-22T06:29:24.879Z,357
2023-05-22T06:30:38.951Z,349
2023-05-22T06:32:25.271Z,351
2023-05-22T06:33:25.050Z,332
2023-05-22T06:34:24.690Z,343
2023-05-22T06:35:25.472Z,349
2023-05-22T06:36:24.758Z,345
2023-05-22T06:37:24.819Z,341
2023-05-22T06:38:25.048Z,347
2023-05-22T06:39:25.291Z,359
2023-05-22T06:40:24.711Z,350
2023-05-22T06:41:24.440Z,352
2023-05-22T06:42:25.089Z,353
2023-05-22T06:43:24.363Z,365
2023-05-22T06:44:24.638Z,347
2023-05-22T06:45:25.390Z,352
2023-05-22T06:46:26.133Z,351
2023-05-22T06:47:24.884Z,366
2023-05-22T06:48:25.152Z,351
2023-05-22T06:49:24.728Z,344
2023-05-22T06:50:25.279Z,345
2023-05-22T06:51:24.781Z,338
2023-05-22T06:52:25.331Z,346
2023-05-22T06:53:24.444Z,362
2023-05-22T06:54:24.825Z,358
2023-05-22T06:55:25.570Z,356
2023-05-22T06:56:24.873Z,350
2023-05-22T06:57:25.366Z,348
2023-05-22T06:58:25.063Z,352
2023-05-22T06:59:24.733Z,367
2023-05-22T07:00:26.144Z,375
2023-05-22T07:02:24.844Z,355
2023-05-22T07:03:25.307Z,357
2023-05-22T07:04:25.072Z,358
2023-05-22T07:05:25.108Z,359
2023-05-22T07:06:24.764Z,362
2023-05-22T07:07:25.203Z,351
2023-05-22T07:08:24.643Z,348
2023-05-22T07:09:25.039Z,346
2023-05-22T07:10:24.945Z,352
2023-05-22T07:11:24.607Z,346
2023-05-22T07:12:24.592Z,369
2023-05-22T07:13:24.875Z,378
2023-05-22T07:14:24.973Z,375
2023-05-22T07:15:25.436Z,366
2023-05-22T07:16:24.563Z,357
2023-05-22T07:17:25.093Z,350
2023-05-22T07:18:25.109Z,348
2023-05-22T07:19:24.786Z,355
2023-05-22T07:21:24.853Z,359
2023-05-22T07:22:24.883Z,369
2023-05-22T07:23:26.237Z,363
2023-05-22T07:24:24.600Z,362
2023-05-22T07:25:25.132Z,369
2023-05-22T07:26:24.354Z,364
2023-05-22T07:27:24.437Z,348
2023-05-22T07:29:24.755Z,362
2023-05-22T07:30:25.419Z,370
2023-05-22T07:31:25.260Z,368
2023-05-22T07:32:25.288Z,362
2023-05-22T07:33:29.905Z,357
2023-05-22T07:34:25.094Z,365
2023-05-22T07:35:25.206Z,352
2023-05-22T07:36:24.513Z,348
2023-05-22T07:37:24.728Z,356
2023-05-22T07:38:24.857Z,358
2023-05-22T07:39:25.218Z,357
2023-05-22T07:40:26.465Z,367
2023-05-22T07:41:24.974Z,358
2023-05-22T07:43:24.726Z,356
2023-05-22T07:44:24.803Z,363
2023-05-22T07:45:33.260Z,353
2023-05-22T07:47:25.078Z,358
2023-05-22T07:48:24.923Z,355
2023-05-22T07:49:25.098Z,358
2023-05-22T07:50:25.094Z,349
2023-05-22T07:51:25.309Z,352
2023-05-22T07:52:24.989Z,354
2023-05-22T07:53:25.306Z,359
2023-05-22T07:54:24.812Z,367
2023-05-22T07:55:25.239Z,361
2023-05-22T07:56:25.030Z,369
2023-05-22T07:57:24.575Z,368
2023-05-22T07:58:24.698Z,358
2023-05-22T07:59:24.629Z,346
2023-05-22T08:00:25.806Z,351
2023-05-22T08:01:39.070Z,356
2023-05-22T08:02:24.536Z,357
2023-05-22T08:03:39.751Z,351
2023-05-22T08:04:24.810Z,354
2023-05-22T08:05:39.124Z,345
2023-05-22T08:06:24.759Z,357
2023-05-22T08:07:25.074Z,361
2023-05-22T08:08:24.501Z,356
2023-05-22T08:09:25.043Z,353
2023-05-22T08:10:26.470Z,345
2023-05-22T08:11:24.936Z,343
2023-05-22T08:12:25.128Z,346
2023-05-22T08:13:25.196Z,344
2023-05-22T08:14:24.691Z,358
2023-05-22T08:15:25.312Z,347
2023-05-22T08:16:25.014Z,344
2023-05-22T08:17:24.976Z,343
2023-05-22T08:18:25.244Z,339
2023-05-22T08:19:46.864Z,335
2023-05-22T08:21:24.891Z,347
2023-05-22T08:22:25.258Z,344
2023-05-22T08:23:24.582Z,343
2023-05-22T08:25:24.881Z,350
2023-05-22T08:26:25.058Z,351
2023-05-22T08:27:24.576Z,337
2023-05-22T08:28:24.727Z,338
2023-05-22T08:29:24.785Z,347
2023-05-22T08:30:25.630Z,345
2023-05-22T08:31:24.891Z,333
2023-05-22T08:32:25.205Z,327
2023-05-22T08:33:24.605Z,330
2023-05-22T08:34:24.790Z,341
2023-05-22T08:35:25.043Z,345
2023-05-22T08:36:25.039Z,349
2023-05-22T08:38:24.992Z,359
2023-05-22T08:39:25.243Z,358
2023-05-22T08:40:24.737Z,359
2023-05-22T08:41:24.929Z,349
2023-05-22T08:42:25.055Z,353
2023-05-22T08:43:24.975Z,363
2023-05-22T08:44:25.130Z,354
2023-05-22T08:45:25.237Z,347
2023-05-22T08:46:24.461Z,346
2023-05-22T08:47:24.932Z,348
2023-05-22T08:48:24.993Z,338
2023-05-22T08:49:25.272Z,337
2023-05-22T08:50:25.080Z,354
2023-05-22T08:51:25.148Z,357
2023-05-22T08:52:25.496Z,352
2023-05-22T08:53:25.281Z,346
2023-05-22T08:54:24.644Z,329
2023-05-22T08:55:25.621Z,335
2023-05-22T08:56:26.697Z,337
2023-05-22T08:57:25.051Z,348
2023-05-22T08:58:25.611Z,351
2023-05-22T08:59:25.179Z,341
2023-05-22T09:00:25.771Z,347
2023-05-22T09:01:24.776Z,352
2023-05-22T09:02:24.813Z,344
2023-05-22T09:03:25.289Z,350
2023-05-22T09:04:24.832Z,346
2023-05-22T09:05:25.616Z,350
2023-05-22T09:06:25.023Z,357
2023-05-22T09:07:24.818Z,360
2023-05-22T09:08:24.990Z,354
2023-05-22T09:09:25.245Z,350
2023-05-22T09:10:25.266Z,355
2023-05-22T09:11:25.186Z,357
2023-05-22T09:12:24.797Z,348
2023-05-22T09:14:24.975Z,343
2023-05-22T09:15:25.581Z,354
2023-05-22T09:16:25.151Z,359
2023-05-22T09:17:24.724Z,349
2023-05-22T09:19:24.964Z,347
2023-05-22T09:20:25.103Z,344
2023-05-22T09:21:30.283Z,338
2023-05-22T09:22:25.253Z,334
2023-05-22T09:23:24.996Z,331
2023-05-22T09:24:24.986Z,336
2023-05-22T09:25:24.923Z,356
2023-05-22T09:26:25.279Z,352
2023-05-22T09:27:24.672Z,351
2023-05-22T09:28:25.136Z,340
2023-05-22T09:29:24.858Z,346
2023-05-22T09:30:25.848Z,339
2023-05-22T09:31:24.628Z,351
2023-05-22T09:32:25.230Z,355
2023-05-22T09:33:24.903Z,352
2023-05-22T09:34:24.867Z,351
2023-05-22T09:35:25.412Z,354
2023-05-22T09:36:25.085Z,350
2023-05-22T09:37:24.695Z,354
2023-05-22T09:38:25.014Z,350
2023-05-22T09:39:25.087Z,348
2023-05-22T09:40:25.381Z,336
2023-05-22T09:41:25.210Z,331
2023-05-22T09:42:24.760Z,348
2023-05-22T09:43:24.762Z,360
2023-05-22T09:44:25.314Z,358
2023-05-22T09:45:25.082Z,352
2023-05-22T09:46:24.907Z,353
2023-05-22T09:47:25.001Z,355
2023-05-22T09:48:24.835Z,360
2023-05-22T09:49:25.265Z,357
2023-05-22T09:50:24.984Z,345
2023-05-22T09:51:24.855Z,340
2023-05-22T09:52:25.581Z,333
2023-05-22T09:53:24.912Z,336
2023-05-22T09:55:25.153Z,344
2023-05-22T09:56:37.796Z,347
2023-05-22T09:57:25.187Z,345
2023-05-22T09:58:24.797Z,357
2023-05-22T09:59:25.465Z,356
2023-05-22T10:00:25.725Z,335
2023-05-22T10:01:25.005Z,336
2023-05-22T10:02:29.892Z,339
2023-05-22T10:03:24.525Z,346
2023-05-22T10:04:25.234Z,340
2023-05-22T10:05:25.244Z,338
2023-05-22T10:06:30.356Z,333
2023-05-22T10:07:25.171Z,334
2023-05-22T10:08:26.606Z,341
2023-05-22T10:09:25.788Z,359
2023-05-22T10:11:24.957Z,356
2023-05-22T10:12:32.849Z,347
2023-05-22T10:13:25.229Z,342
2023-05-22T10:14:24.625Z,346
2023-05-22T10:15:25.461Z,335
2023-05-22T10:16:24.731Z,320
2023-05-22T10:17:24.739Z,327
2023-05-22T10:18:25.186Z,326
2023-05-22T10:19:24.806Z,337
2023-05-22T10:20:25.729Z,334
2023-05-22T10:21:25.488Z,339
2023-05-22T10:22:38.972Z,347
2023-05-22T10:23:24.398Z,348
2023-05-22T10:24:24.988Z,347
2023-05-22T10:25:25.631Z,350
2023-05-22T10:27:24.908Z,344
2023-05-22T10:29:25.373Z,335
2023-05-22T10:30:25.441Z,340
2023-05-22T10:31:25.065Z,351
2023-05-22T10:32:44.405Z,359
2023-05-22T10:33:25.462Z,357
2023-05-22T10:35:25.667Z,350
2023-05-22T10:36:45.465Z,358
2023-05-22T10:37:26.471Z,350
2023-05-22T10:38:24.929Z,361
2023-05-22T10:39:25.646Z,354
2023-05-22T10:40:25.583Z,362
2023-05-22T10:41:24.817Z,361
2023-05-22T10:42:43.996Z,354
2023-05-22T10:43:25.382Z,358
2023-05-22T10:44:24.802Z,356
2023-05-22T10:46:25.061Z,355
2023-05-22T10:47:24.856Z,360
2023-05-22T10:48:25.200Z,350
2023-05-22T10:49:24.999Z,338
2023-05-22T10:50:25.627Z,349
2023-05-22T10:51:25.107Z,347
2023-05-22T10:52:25.120Z,346
2023-05-22T10:53:25.311Z,349
2023-05-22T10:54:24.921Z,340
2023-05-22T10:55:25.642Z,342
2023-05-22T10:56:25.757Z,339
2023-05-22T10:57:24.801Z,350
2023-05-22T10:58:24.588Z,340
2023-05-22T11:00:25.899Z,348
2023-05-22T11:01:25.035Z,353
2023-05-22T11:02:25.276Z,356
2023-05-22T11:03:25.069Z,346
2023-05-22T11:04:24.925Z,353
2023-05-22T11:05:25.176Z,346
2023-05-22T11:06:25.049Z,342
2023-05-22T11:07:24.948Z,340
2023-05-22T11:08:25.125Z,339
2023-05-22T11:09:25.482Z,335
2023-05-22T11:10:25.234Z,347
2023-05-22T11:11:25.277Z,345
2023-05-22T11:12:25.423Z,341
2023-05-22T11:13:28.127Z,336
2023-05-22T11:15:25.719Z,339
2023-05-22T11:16:25.524Z,337
2023-05-22T11:17:25.258Z,339
2023-05-22T11:18:24.786Z,345
2023-05-22T11:19:25.143Z,340
2023-05-22T11:20:25.124Z,348
2023-05-22T11:21:25.213Z,358
2023-05-22T11:22:24.865Z,350
2023-05-22T11:23:25.369Z,356
2023-05-22T11:24:24.687Z,343
2023-05-22T11:25:25.217Z,338
2023-05-22T11:26:27.183Z,342
2023-05-22T11:27:25.513Z,332
2023-05-22T11:28:25.199Z,347
2023-05-22T11:29:24.612Z,352
2023-05-22T11:30:25.393Z,344
2023-05-22T11:31:24.791Z,335
2023-05-22T11:32:24.953Z,328
2023-05-22T11:33:25.398Z,326
2023-05-22T11:34:24.915Z,337
2023-05-22T11:35:25.481Z,336
2023-05-22T11:37:25.119Z,345
2023-05-22T11:38:24.612Z,344
2023-05-22T11:39:25.081Z,336
2023-05-22T11:40:25.459Z,316
2023-05-22T11:41:25.021Z,324
2023-05-22T11:43:25.550Z,330
2023-05-22T11:44:25.026Z,341
2023-05-22T11:45:25.347Z,336
2023-05-22T11:46:25.008Z,334
2023-05-22T11:47:24.954Z,352
2023-05-22T11:48:25.030Z,344
2023-05-22T11:49:24.800Z,331
2023-05-22T11:50:40.864Z,344
2023-05-22T11:51:24.881Z,346
2023-05-22T11:52:25.541Z,335
2023-05-22T11:53:25.221Z,329
2023-05-22T11:54:24.937Z,341
2023-05-22T11:55:24.913Z,331
2023-05-22T11:56:25.248Z,334
2023-05-22T11:57:24.884Z,344
2023-05-22T11:58:24.937Z,356
2023-05-22T11:59:24.886Z,350
2023-05-22T12:00:26.592Z,338
2023-05-22T12:01:25.017Z,328
2023-05-22T12:02:24.873Z,329
2023-05-22T12:03:25.965Z,328
2023-05-22T12:04:24.832Z,332
2023-05-22T12:05:25.107Z,353
2023-05-22T12:06:24.788Z,337
2023-05-22T12:07:25.301Z,343
2023-05-22T12:08:25.055Z,345
2023-05-22T12:09:24.713Z,350
2023-05-22T12:10:25.586Z,337
2023-05-22T12:11:24.949Z,335
2023-05-22T12:12:24.923Z,340
2023-05-22T12:13:24.798Z,338
2023-05-22T12:14:25.369Z,334
2023-05-22T12:16:24.744Z,345
2023-05-22T12:17:25.277Z,340
2023-05-22T12:18:24.779Z,346
2023-05-22T12:19:25.048Z,336
2023-05-22T12:20:25.849Z,335
2023-05-22T12:21:25.441Z,338
2023-05-22T12:22:25.233Z,340
2023-05-22T12:23:24.737Z,328
2023-05-22T12:24:25.220Z,345
2023-05-22T12:25:30.197Z,350
2023-05-22T12:26:24.859Z,351
2023-05-22T12:27:25.359Z,355
2023-05-22T12:28:24.806Z,344
2023-05-22T12:29:25.217Z,327
2023-05-22T12:30:25.218Z,328
2023-05-22T12:31:24.900Z,322
2023-05-22T12:32:25.653Z,326
2023-05-22T12:33:25.114Z,341
2023-05-22T12:34:24.853Z,344
2023-05-22T12:35:25.561Z,352
2023-05-22T12:36:25.175Z,349
2023-05-22T12:38:24.947Z,343
2023-05-22T12:39:25.333Z,339
2023-05-22T12:40:24.865Z,338
2023-05-22T12:42:25.277Z,329
2023-05-22T12:43:24.726Z,328
2023-05-22T12:44:25.332Z,338
2023-05-22T12:45:25.151Z,345
2023-05-22T12:46:24.919Z,337
2023-05-22T12:48:24.767Z,339
2023-05-22T12:49:25.346Z,340
2023-05-22T12:50:25.107Z,338
2023-05-22T12:52:25.178Z,348
2023-05-22T12:53:24.683Z,344
2023-05-22T12:54:25.283Z,349
2023-05-22T12:55:25.129Z,353
2023-05-22T12:56:25.033Z,342
2023-05-22T12:57:44.086Z,343
2023-05-22T12:58:24.312Z,345
2023-05-22T12:59:25.208Z,339
2023-05-22T13:00:25.835Z,335
2023-05-22T13:01:43.838Z,336
2023-05-22T13:03:25.413Z,342
2023-05-22T13:04:24.838Z,344
2023-05-22T13:05:25.899Z,341
2023-05-22T13:06:25.440Z,334
2023-05-22T13:08:25.354Z,343
2023-05-22T13:09:25.046Z,347
2023-05-22T13:10:25.549Z,332
2023-05-22T13:12:24.560Z,331
2023-05-22T13:13:25.342Z,336
2023-05-22T13:14:25.054Z,346
2023-05-22T13:16:25.291Z,336
2023-05-22T13:17:25.217Z,347
2023-05-22T13:18:25.128Z,343
2023-05-22T13:19:24.912Z,349
2023-05-22T13:20:24.891Z,332
2023-05-22T13:21:26.568Z,331
2023-05-22T13:22:29.258Z,343
2023-05-22T13:23:31.805Z,346
2023-05-22T13:24:44.813Z,344
2023-05-22T13:25:25.700Z,338
2023-05-22T13:26:25.413Z,342
2023-05-22T13:27:25.476Z,339
2023-05-22T13:28:25.542Z,346
2023-05-22T13:30:25.679Z,333
2023-05-22T13:31:24.682Z,331
2023-05-22T13:32:25.143Z,328
2023-05-22T13:33:24.633Z,335
2023-05-22T13:34:25.324Z,321
2023-05-22T13:35:25.434Z,327
2023-05-22T13:36:25.181Z,325
2023-05-22T13:37:24.866Z,332
2023-05-22T13:38:25.190Z,336
2023-05-22T13:39:24.908Z,335
2023-05-22T13:40:25.646Z,349
2023-05-22T13:41:24.877Z,356
2023-05-22T13:42:25.636Z,348
2023-05-22T13:43:25.457Z,335
2023-05-22T13:44:25.336Z,352
2023-05-22T13:45:25.349Z,351
2023-05-22T13:46:24.474Z,338
2023-05-22T13:47:25.050Z,343
2023-05-22T13:48:25.045Z,335
2023-05-22T13:49:25.353Z,323
2023-05-22T13:50:25.378Z,321
2023-05-22T13:51:25.008Z,317
2023-05-22T13:52:25.648Z,333
2023-05-22T13:53:24.967Z,326
2023-05-22T13:54:25.116Z,329
2023-05-22T13:55:25.265Z,333
2023-05-22T13:56:25.082Z,341
2023-05-22T13:57:24.837Z,325
2023-05-22T13:58:25.245Z,333
2023-05-22T14:00:25.466Z,331
2023-05-22T14:02:25.330Z,336
2023-05-22T14:03:25.381Z,331
2023-05-22T14:04:25.115Z,322
2023-05-22T14:05:25.609Z,338
2023-05-22T14:06:25.050Z,339
2023-05-22T14:07:25.338Z,337
2023-05-22T14:08:25.311Z,345
2023-05-22T14:09:25.491Z,336
2023-05-22T14:10:25.412Z,332
2023-05-22T14:11:24.988Z,329
2023-05-22T14:12:25.374Z,315
2023-05-22T14:13:24.868Z,324
2023-05-22T14:14:25.187Z,318
2023-05-22T14:16:25.199Z,325
2023-05-22T14:17:25.165Z,339
2023-05-22T14:18:24.831Z,338
2023-05-22T14:19:25.334Z,324
2023-05-22T14:20:25.052Z,330
2023-05-22T14:21:24.772Z,343
2023-05-22T14:22:25.225Z,335
2023-05-22T14:23:24.929Z,327
2023-05-22T14:24:25.592Z,329
2023-05-22T14:26:25.090Z,339
2023-05-22T14:27:25.048Z,346
2023-05-22T14:28:24.993Z,337
2023-05-22T14:29:25.032Z,344
2023-05-22T14:30:25.403Z,334
2023-05-22T14:31:25.006Z,322
2023-05-22T14:32:24.567Z,329
2023-05-22T14:33:25.081Z,333
2023-05-22T14:34:25.851Z,327
2023-05-22T14:35:25.890Z,336
2023-05-22T14:37:25.360Z,338
2023-05-22T14:38:25.096Z,334
2023-05-22T14:39:25.065Z,337
2023-05-22T14:40:25.183Z,335
2023-05-22T14:41:25.395Z,326
2023-05-22T14:42:25.217Z,328
2023-05-22T14:44:25.429Z,332